Weather observations for the past three days for
Tillamook, Tillamook Airport
Imperial (Metric)
Date Time (pdt) Wind (mph) Vis. (mi.) Weather Sky Cond. Temperature (ºF) Relative Humidity Wind Chill (°F) Heat Index (°F) Pressure Precipitation (in)
Air Dwpt 6 hour altimeter (in) sea level (mb) 1 hr 3 hr 6 hr
Max. Min.
02 15:15 W 8 10.00 Fair CLR 60.8 53.6 77% 29.95 0.0
02 14:55 NW 8 10.00 Fair CLR 60.8 53.6 77% 29.95 0.0
02 14:35 NW 8 10.00 Fair CLR 60.8 55.4 83% 29.95 0.0
02 14:15 NW 5 G 12 10.00 Fair CLR 59 53.6 82% 29.96 0.0
02 13:35 Vrbl 7 10.00 Fair CLR 59 53.6 82% 29.97 0.0
02 13:15 NW 8 10.00 A Few Clouds FEW019 60.8 53.6 77% 29.98 0.0
02 12:55 NW 8 10.00 A Few Clouds FEW020 60.8 53.6 77% 29.98 0.0
02 12:35 Calm 10.00 Fair CLR 60.8 50 68% 29.99 0.0
02 12:15 Calm 10.00 A Few Clouds FEW019 59 50 72% 30 0.0
02 11:35 NW 5 10.00 Fair CLR 57.2 50 77% 30 0.0
02 11:15 Vrbl 3 10.00 Fair CLR 55.4 50 82% 30.01 0.0
02 10:55 Vrbl 3 10.00 A Few Clouds FEW018 55.4 48.2 77% 30.01 0.0
02 10:35 Vrbl 5 10.00 Mostly Cloudy BKN018 55.4 48.2 77% 30.02 0.0
02 10:15 SW 5 10.00 Overcast OVC017 53.6 48.2 82% 30.02 0.0
02 09:55 Calm 10.00 Overcast OVC017 53.6 48.2 82% 30.03 0.0
02 09:35 Calm 10.00 Overcast OVC017 53.6 48.2 82% 30.04 0.0
02 09:15 SE 5 10.00 Overcast OVC018 51.8 48.2 88% 30.04 0.0
02 08:55 S 5 10.00 Overcast OVC018 51.8 48.2 88% 30.04 0.0
02 08:35 Calm 10.00 Overcast OVC019 50 48.2 94% 30.04 0.0
02 08:15 Calm 10.00 Overcast OVC020 50 50 100% 30.04 0.0
02 07:55 W 3 9.00 Mostly Cloudy BKN020 48.2 48.2 100% 30.03 0.0
02 07:35 NW 3 9.00 Overcast OVC019 48.2 48.2 100% 30.03 0.0
02 07:15 Calm 9.00 Overcast OVC020 48.2 48.2 100% 30.04 0.0
02 06:55 Calm 10.00 Overcast OVC020 48.2 48.2 100% 30.04 0.0
02 06:35 Calm 10.00 Overcast OVC020 46.4 46.4 100% 30.04 0.0
02 05:55 Calm 10.00 Overcast OVC019 48.2 48.2 100% 30.04 0.0
02 05:35 S 5 10.00 Overcast OVC019 46.4 46.4 100% 45 30.04 0.0
02 05:15 S 5 10.00 Overcast OVC018 46.4 46.4 100% 45 30.04 0.0
02 04:55 S 5 10.00 Overcast OVC018 44.6 44.6 100% 43 30.04 0.0
02 04:35 Calm 10.00 Overcast OVC018 44.6 44.6 100% 30.04 0.0
02 04:15 S 3 10.00 Overcast BKN019 OVC047 44.6 44.6 100% 30.04 0.0
02 03:55 Calm 10.00 Overcast BKN018 OVC047 44.6 44.6 100% 30.04 0.0
02 03:35 Calm 10.00 Overcast OVC020 46.4 46.4 100% 30.05 0.0
02 03:15 Calm 10.00 Overcast OVC020 46.4 46.4 100% 30.06 0.0
02 02:55 W 5 10.00 Overcast OVC021 48.2 48.2 100% 47 30.06 0.0
02 02:35 SW 3 10.00 Overcast OVC021 50 48.2 94% 30.07 0.0
02 02:15 SW 3 10.00 Overcast OVC020 50 48.2 94% 30.07 0.0
02 01:55 Calm 10.00 Overcast OVC019 51.8 48.2 88% 30.07 0.0
02 01:35 Calm 10.00 Overcast OVC019 51.8 48.2 88% 30.08 0.0
02 01:15 Calm 10.00 Overcast OVC019 51.8 50 94% 30.08 0.0
02 00:55 Calm 10.00 Overcast OVC018 51.8 50 94% 30.08 0.0
02 00:35 Calm 10.00 Overcast OVC018 51.8 48.2 88% 30.08 0.0
02 00:15 W 3 10.00 Overcast OVC018 51.8 50 94% 30.09 0.0
01 23:55 W 3 10.00 Overcast OVC018 51.8 50 94% 30.09 0.0
01 23:35 W 5 10.00 Overcast OVC018 51.8 50 94% 30.09 0.0
01 23:15 W 6 10.00 Overcast OVC018 51.8 50 94% 30.09 0.0
01 22:55 NW 7 10.00 Overcast OVC018 51.8 50 94% 30.09 0.0
01 22:35 NW 9 10.00 Overcast OVC018 51.8 50 94% 30.09 0.0
01 22:15 NW 6 10.00 Overcast OVC019 51.8 50 94% 30.09 0.0
01 21:55 NW 7 10.00 Overcast OVC018 51.8 50 94% 30.09 0.0
01 21:35 NW 10 10.00 Overcast OVC017 51.8 50 94% 30.08 0.0
01 21:15 NW 9 10.00 Overcast OVC017 51.8 50 94% 30.08 0.0
01 20:55 NW 9 G 18 10.00 Overcast OVC016 53.6 50 88% 30.08 0.0
01 20:35 NW 12 G 17 10.00 Overcast OVC016 53.6 50 88% 30.08 0.0
01 20:15 NW 12 10.00 Overcast OVC016 53.6 50 88% 30.08 0.0
01 19:55 NW 15 G 22 10.00 Overcast OVC016 53.6 50 88% 30.07 0.0
01 19:35 NW 16 G 23 10.00 Overcast OVC016 53.6 50 88% 30.07 0.0
01 19:15 NW 16 10.00 Overcast OVC016 53.6 51.8 94% 30.06 0.0
01 18:55 NW 10 G 18 10.00 Overcast OVC015 53.6 50 88% 30.07 0.0
01 18:35 NW 13 G 22 10.00 Overcast OVC015 53.6 51.8 94% 30.07 0.0
01 18:15 NW 13 10.00 Overcast OVC013 53.6 51.8 94% 30.07 0.0
01 17:55 W 12 G 18 10.00 Overcast OVC013 55.4 51.8 88% 30.07 0.0
01 17:35 NW 15 G 21 10.00 Overcast OVC015 55.4 51.8 88% 30.07 0.0
01 17:15 NW 16 G 23 10.00 Overcast OVC017 55.4 51.8 88% 30.07 0.0
01 16:55 NW 18 10.00 Overcast OVC018 55.4 51.8 88% 30.06 0.0
01 16:35 NW 16 10.00 Overcast OVC019 55.4 51.8 88% 30.07 0.0
01 16:15 NW 15 10.00 Overcast OVC019 57.2 53.6 88% 30.07 0.0
01 15:55 NW 15 10.00 Overcast OVC018 57.2 51.8 82% 30.07 0.0
01 15:35 NW 17 10.00 Overcast OVC018 57.2 51.8 82% 30.08 0.0
01 15:15 NW 14 G 21 10.00 Overcast OVC019 57.2 51.8 82% 30.08 0.0
01 14:55 W 15 10.00 Overcast OVC019 57.2 51.8 82% 30.08 0.0
01 14:35 NW 16 10.00 Overcast OVC020 57.2 51.8 82% 30.08 0.0
01 14:15 NW 17 10.00 Overcast OVC020 57.2 51.8 82% 30.08 0.0
01 13:55 NW 14 G 20 10.00 Overcast OVC020 57.2 51.8 82% 30.08 0.0
01 13:35 NW 14 9.00 Overcast OVC019 57.2 51.8 82% 30.08 0.0
01 13:15 NW 14 5.00 Overcast with Haze OVC018 57.2 51.8 82% 30.08 0.0
01 12:55 NW 13 4.00 Overcast with Haze OVC018 57.2 51.8 82% 30.09 0.0
01 12:35 NW 7 G 15 3.00 Overcast with Haze OVC019 57.2 51.8 82% 30.09 0.0
01 12:15 NW 10 6.00 Overcast with Haze OVC018 57.2 51.8 82% 30.09 0.0
01 11:55 NW 9 5.00 Overcast with Haze OVC017 57.2 51.8 82% 30.1 0.0
01 11:35 NW 9 7.00 NULL NULL 55.4 51.8 88% 30.1 0.0
01 11:15 NW 10 6.00 Overcast with Haze OVC016 55.4 51.8 88% 30.1 0.0
01 10:55 NW 8 9.00 Overcast OVC016 55.4 51.8 88% 30.09 0.0
01 10:35 NW 9 10.00 Overcast OVC015 55.4 51.8 88% 30.09 0.0
01 10:15 Calm 10.00 Overcast OVC016 55.4 50 82% 30.08 0.0
01 09:55 Calm 10.00 Overcast OVC015 55.4 50 82% 30.08 0.0
01 09:35 Calm 10.00 Overcast OVC014 55.4 51.8 88% 30.08 0.0
01 09:15 SW 3 10.00 Overcast OVC013 55.4 51.8 88% 30.08 0.0
01 08:55 Calm 10.00 Overcast OVC012 53.6 51.8 94% 30.07 0.0
01 08:35 Calm 10.00 Overcast OVC013 53.6 51.8 94% 30.07 0.0
01 08:15 Calm 9.00 Overcast OVC014 53.6 51.8 94% 30.07 0.0
01 07:55 Calm 9.00 Overcast OVC013 53.6 51.8 94% 30.07 0.0
01 07:35 Calm 8.00 Overcast OVC012 53.6 51.8 94% 30.07 0.0
01 07:15 Calm 9.00 Overcast OVC008 53.6 51.8 94% 30.06 0.0
01 06:55 Calm 10.00 Overcast BKN008 OVC014 51.8 51.8 100% 30.06 0.0
01 06:35 Calm 10.00 Overcast OVC013 51.8 51.8 100% 30.05 0.0
01 06:15 Calm 9.00 Overcast OVC011 53.6 51.8 94% 30.05 0.0
01 05:55 Calm 10.00 Overcast OVC010 53.6 51.8 94% 30.05 0.0
01 05:35 Calm 10.00 Overcast OVC011 53.6 51.8 94% 30.05 0.0
01 05:15 Calm 10.00 Overcast OVC011 53.6 51.8 94% 30.05 0.0
01 04:55 Calm 10.00 Overcast OVC010 53.6 51.8 94% 30.06 0.0
01 04:35 Calm 10.00 Overcast OVC010 53.6 51.8 94% 30.06 0.0
01 04:15 Calm 10.00 Overcast OVC010 53.6 51.8 94% 30.05 0.0
01 03:55 Calm 10.00 Overcast OVC010 53.6 51.8 94% 30.05 0.0
01 03:35 Calm 10.00 Overcast OVC010 53.6 51.8 94% 30.05 0.0
01 03:15 Calm 10.00 Overcast OVC010 53.6 51.8 94% 30.05 0.0
01 02:55 W 6 10.00 Overcast OVC010 53.6 51.8 94% 30.05 0.0
01 02:35 W 3 9.00 Overcast OVC010 53.6 51.8 94% 30.05 0.0
01 02:15 W 5 7.00 Overcast BKN009 OVC012 53.6 53.6 100% 30.06 0.0
01 01:55 W 7 8.00 Overcast OVC011 53.6 53.6 100% 30.06 0.0
01 01:35 W 7 9.00 Overcast OVC010 53.6 53.6 100% 30.06 0.0
01 01:15 W 3 10.00 Overcast OVC009 53.6 51.8 94% 30.06 0.0
01 00:55 SW 6 10.00 Overcast OVC009 53.6 51.8 94% 30.06 0.0
01 00:35 W 5 10.00 Overcast OVC010 53.6 51.8 94% 30.07 0.0
01 00:15 Vrbl 3 8.00 Overcast OVC010 53.6 53.6 100% 30.06 0.0
30 23:55 Calm 6.00 Fog/Mist OVC008 53.6 53.6 100% 30.07 0.0
30 23:35 Calm 7.00 Overcast OVC007 53.6 53.6 100% 30.07 0.0
30 23:15 NW 5 7.00 Overcast OVC007 53.6 53.6 100% 30.06 0.0
30 22:55 W 5 7.00 Overcast OVC008 51.8 51.8 100% 30.05 0.0
30 22:35 Calm 9.00 Overcast OVC008 53.6 53.6 100% 30.04 0.0
30 22:15 Calm 9.00 Overcast OVC008 53.6 53.6 100% 30.05 0.0
30 21:55 Calm 9.00 Overcast OVC009 53.6 53.6 100% 30.05 0.0
30 21:35 Calm 9.00 Mostly Cloudy BKN012 51.8 51.8 100% 30.05 0.0
30 21:15 NE 3 10.00 A Few Clouds FEW012 53.6 51.8 94% 30.04 0.0
30 20:55 NE 5 10.00 Fair CLR 53.6 53.6 100% 30.04 0.0
30 20:35 NE 5 10.00 Partly Cloudy SCT013 SCT017 55.4 53.6 94% 30.04 0.0
30 20:15 Calm 10.00 Overcast OVC012 55.4 53.6 94% 30.05 0.0
30 19:55 NW 9 10.00 Overcast OVC013 55.4 53.6 94% 30.05 0.0
30 19:35 N 7 10.00 Mostly Cloudy BKN013 55.4 53.6 94% 30.04 0.0
30 19:15 NW 9 10.00 Mostly Cloudy BKN013 57.2 53.6 88% 30.05 0.0
30 18:55 NW 8 10.00 Overcast OVC013 57.2 53.6 88% 30.05 0.0
30 18:35 NW 9 10.00 Overcast OVC014 57.2 53.6 88% 30.05 0.0
30 18:15 N 7 10.00 Overcast OVC013 59 55.4 88% 30.05 0.0
30 17:55 NW 7 10.00 Mostly Cloudy BKN013 59 55.4 88% 30.06 0.0
30 17:35 W 8 10.00 A Few Clouds FEW017 60.8 55.4 83% 30.06 0.0
30 17:15 W 9 10.00 Fair CLR 60.8 55.4 83% 30.06 0.0
30 16:35 W 13 10.00 Fair CLR 64.4 55.4 73% 30.05 0.0
30 16:15 Vrbl 6 10.00 Fair CLR 66.2 55.4 68% 30.06 0.0
30 15:55 Vrbl 7 10.00 Fair CLR 64.4 55.4 73% 30.06 0.0
30 15:35 W 9 10.00 Fair CLR 66.2 55.4 68% 30.06 0.0
30 14:55 NW 6 10.00 Fair CLR 64.4 55.4 73% 30.07 0.0
30 14:35 W 5 10.00 Fair CLR 64.4 53.6 68% 30.08 0.0
30 14:15 W 9 10.00 Fair CLR 62.6 51.8 68% 30.08 0.0
30 13:55 W 12 10.00 Fair CLR 64.4 53.6 68% 30.08 0.0
30 13:35 NW 7 G 14 10.00 Light Rain CLR 64.4 53.6 68% 30.08 0.0
30 13:15 NW 9 10.00 Fair CLR 62.6 53.6 73% 30.08 0.0
30 12:55 W 10 10.00 Fair CLR 62.6 53.6 73% 30.08 0.0
30 12:35 W 14 10.00 Fair CLR 60.8 53.6 77% 30.08 0.0
30 12:15 W 14 10.00 Fair CLR 64.4 53.6 68% 30.07 0.0
30 11:55 Vrbl 6 10.00 Fair CLR 66.2 53.6 64% 30.07 0.0
30 11:35 Vrbl 5 10.00 Fair CLR 64.4 53.6 68% 30.07 0.0
30 11:15 Calm 10.00 Fair CLR 62.6 50 64% 30.08 0.0
30 10:55 E 5 10.00 Fair CLR 60.8 53.6 77% 30.09 0.0
30 10:35 Calm 10.00 Fair CLR 59 53.6 82% 30.1 0.0
30 10:15 W 6 10.00 Fair CLR 55.4 53.6 94% 30.1 0.0
30 09:55 Calm 9.00 Fair CLR 55.4 51.8 88% 30.1 0.0
30 09:35 Calm 10.00 Fair CLR 53.6 51.8 94% 30.1 0.0
30 09:15 Calm 10.00 Fair CLR 51.8 50 94% 30.1 0.0
30 08:55 Calm 8.00 A Few Clouds FEW003 50 50 100% 30.1 0.0
30 08:35 Calm 8.00 Mostly Cloudy BKN003 48.2 48.2 100% 30.11 0.0
30 08:15 Calm 2.00 Light Rain Fog/Mist OVC003 48.2 48.2 100% 30.12 0.0
30 07:55 Calm 3.00 Fog/Mist OVC003 46.4 46.4 100% 30.13 0.0
30 07:35 Calm 3.00 Fog/Mist OVC003 46.4 46.4 100% 30.13 0.0
30 07:15 Calm 6.00 Fog/Mist OVC004 44.6 44.6 100% 30.13 0.0
30 06:55 Calm 8.00 Overcast OVC004 44.6 44.6 100% 30.13 0.0
30 06:35 Calm 9.00 Overcast OVC005 44.6 44.6 100% 30.13 0.0
30 06:15 Calm 9.00 Overcast OVC005 42.8 42.8 100% 30.14 0.0
30 05:55 Calm 9.00 Mostly Cloudy BKN006 41 41 100% 30.14 0.0
30 05:35 NE 3 8.00 Mostly Cloudy SCT001 BKN006 42.8 42.8 100% 30.13 0.0
30 05:15 SE 5 0.25 Unknown Precip Fog OVC001 41 41 100% 38 30.13 0.0
30 04:55 Calm 3.00 Fog/Mist OVC001 41 41 100% 30.11 0.0
30 04:35 SE 5 1.75 Fog/Mist BKN001 41 41 100% 38 30.11 0.0
30 04:15 Calm 0.15 Fog OVC002 41 41 100% 30.12 0.0
30 03:55 Calm 1.50 Fog/Mist OVC002 42.8 42.8 100% 30.12 0.0
30 03:35 SE 5 0.15 Fog OVC001 42.8 42.8 100% 41 30.12 0.0
30 03:15 Calm 0.15 Fog OVC001 42.8 42.8 100% 30.13 0.0
30 02:55 Calm 0.25 Fog OVC002 42.8 42.8 100% 30.13 0.0
30 02:35 Calm 0.75 Unknown Precip Fog/Mist OVC002 42.8 42.8 100% 30.14 0.0
30 02:15 Calm 6.00 Fog/Mist FEW002 OVC009 41 41 100% 30.15 0.0
30 01:55 Calm 9.00 Mostly Cloudy BKN008 BKN012 42.8 42.8 100% 30.15 0.0
30 01:35 Calm 9.00 Overcast OVC008 44.6 44.6 100% 30.15 0.0
30 01:15 SE 5 9.00 Overcast BKN008 OVC012 44.6 44.6 100% 43 30.16 0.0
30 00:55 Calm 9.00 Mostly Cloudy BKN011 42.8 42.8 100% 30.16 0.0
30 00:35 Calm 10.00 Mostly Cloudy BKN012 44.6 44.6 100% 30.16 0.0
30 00:15 Calm 7.00 Mostly Cloudy BKN013 44.6 44.6 100% 30.16 0.0
29 23:55 Calm 8.00 Mostly Cloudy FEW005 BKN012 46.4 46.4 100% 30.17 0.0
29 23:35 Calm 9.00 Mostly Cloudy BKN012 46.4 46.4 100% 30.17 0.0
29 23:15 Calm 10.00 Partly Cloudy SCT012 46.4 46.4 100% 30.17 0.0
29 22:55 S 3 10.00 Partly Cloudy SCT012 46.4 46.4 100% 30.17 0.0
29 22:35 Calm 10.00 Fair CLR 48.2 48.2 100% 30.17 0.0
29 22:15 Calm 10.00 Fair CLR 48.2 48.2 100% 30.17 0.0
29 21:55 Calm 10.00 Fair CLR 50 48.2 94% 30.17 0.0
29 21:35 Calm 10.00 Fair CLR 50 50 100% 30.18 0.0
29 21:15 S 3 10.00 Fair CLR 50 50 100% 30.18 0.0
29 20:55 S 3 10.00 Fair CLR 50 50 100% 30.18 0.0
29 20:15 Calm 10.00 Fair CLR 53.6 50 88% 30.18 0.0
29 19:55 W 6 G 13 10.00 Fair CLR 53.6 51.8 94% 30.17 0.0
29 19:35 W 8 G 15 10.00 Fair CLR 55.4 51.8 88% 30.18 0.0
29 19:15 NW 8 10.00 Fair CLR 55.4 51.8 88% 30.18 0.0
29 18:55 W 10 G 17 10.00 Fair CLR 55.4 51.8 88% 30.18 0.0
29 18:35 NW 14 10.00 Fair CLR 57.2 51.8 82% 30.18 0.0
29 17:55 NW 14 10.00 Fair CLR 57.2 51.8 82% 30.19 0.0
29 17:35 NW 17 10.00 Fair CLR 57.2 50 77% 30.19 0.0
29 17:15 NW 17 10.00 Fair CLR 59 51.8 77% 30.18 0.0
29 16:55 NW 18 10.00 Fair CLR 59 50 72% 30.18 0.0
29 16:35 NW 17 G 24 10.00 Fair CLR 59 50 72% 30.19 0.0
29 16:15 NW 20 10.00 Fair CLR 59 50 72% 30.2 0.0
29 15:55 NW 15 G 23 10.00 Fair CLR 59 50 72% 30.2 0.0
Date Time (pdt) Wind (mph) Vis. (mi.) Weather Sky Cond. Air Dwpt Max. Min. Relative Humidity Wind Chill (°F) Heat Index (°F) altimeter (in) sea level (mb) 1 hr 3 hr 6 hr
6 hour
Temperature (ºF) Pressure Precipitation (in)